createdAt,value
2023-03-24T00:03:05.013Z,4
2023-03-24T00:08:45.253Z,4.1
2023-03-24T00:14:05.892Z,3.8
2023-03-24T00:19:43.027Z,3.8
2023-03-24T00:25:18.042Z,3.9
2023-03-24T00:30:38.556Z,3.8
2023-03-24T00:36:31.288Z,3.7
2023-03-24T00:42:22.241Z,3.6
2023-03-24T00:48:14.625Z,3.5
2023-03-24T00:59:11.388Z,3.6
2023-03-24T01:04:31.992Z,3.6
2023-03-24T01:10:23.992Z,3.6
2023-03-24T01:15:59.456Z,3.6
2023-03-24T01:21:35.719Z,3.5
2023-03-24T01:27:27.880Z,3.6
2023-03-24T01:33:19.919Z,3.6
2023-03-24T01:39:11.649Z,3.6
2023-03-24T01:45:06.039Z,3.4
2023-03-24T01:50:59.717Z,3.4
2023-03-24T01:56:50.713Z,3.4
2023-03-24T02:02:27.285Z,3.3
2023-03-24T02:08:19.555Z,3.2
2023-03-24T02:13:55.896Z,3.4
2023-03-24T02:19:32.796Z,3.4
2023-03-24T02:25:08.594Z,3.4
2023-03-24T02:30:59.903Z,3.3
2023-03-24T02:36:51.663Z,3.2
2023-03-24T02:42:12.334Z,3.3
2023-03-24T02:48:04.489Z,3.4
2023-03-24T02:53:56.143Z,3.6
2023-03-24T02:59:47.815Z,3.5
2023-03-24T03:05:40.096Z,3.4
2023-03-24T03:11:32.585Z,3.2
2023-03-24T03:17:23.774Z,3.1
2023-03-24T03:23:00.192Z,3.1
2023-03-24T03:28:20.787Z,3.3
2023-03-24T03:33:26.012Z,3.1
2023-03-24T03:39:02.394Z,2.9
2023-03-24T03:44:38.264Z,3
2023-03-24T03:50:14.156Z,2.9
2023-03-24T03:55:45.248Z,2.8
2023-03-24T04:01:36.932Z,2.7
2023-03-24T04:07:07.271Z,2.4
2023-03-24T04:12:43.686Z,2.2
2023-03-24T04:18:36.347Z,2.1
2023-03-24T04:24:11.524Z,2.2
2023-03-24T04:30:02.326Z,2.1
2023-03-24T04:35:55.049Z,2
2023-03-24T04:41:48.265Z,2
2023-03-24T04:47:39.889Z,2.1
2023-03-24T04:53:16.012Z,2.3
2023-03-24T04:59:08.229Z,2.4
2023-03-24T05:05:00.318Z,2.8
2023-03-24T05:10:54.601Z,3
2023-03-24T05:16:48.244Z,3.6
2023-03-24T05:22:25.050Z,3.6
2023-03-24T05:28:01.631Z,3.8
2023-03-24T05:33:38.398Z,4.3
2023-03-24T05:39:14.842Z,4.9
2023-03-24T05:45:07.123Z,5.3
2023-03-24T05:50:59.184Z,5.9
2023-03-24T05:56:50.491Z,5.9
2023-03-24T06:02:26.934Z,6.1
2023-03-24T06:08:20.078Z,6.5
2023-03-24T06:14:11.674Z,6.9
2023-03-24T06:19:48.425Z,7.3
2023-03-24T06:25:39.420Z,7.7
2023-03-24T06:31:16.260Z,8.3
2023-03-24T06:45:10.950Z,8.8
2023-03-24T06:51:05.531Z,9.2
2023-03-24T06:56:59.242Z,9.3
2023-03-24T07:02:52.058Z,9.8
2023-03-24T07:09:45.433Z,10.3
2023-03-24T07:15:38.968Z,10.4
2023-03-24T07:21:31.373Z,11.5
2023-03-24T07:27:23.492Z,11.1
2023-03-24T07:33:30.687Z,10.4
2023-03-24T07:39:23.068Z,11.4
2023-03-24T07:45:15.141Z,12
2023-03-24T07:51:20.250Z,12.5
2023-03-24T07:57:15.327Z,13
2023-03-24T08:03:09.403Z,13.9
2023-03-24T08:08:49.226Z,14.4
2023-03-24T08:14:51.665Z,13.9
2023-03-24T08:20:39.059Z,14.5
2023-03-24T08:26:17.349Z,13.9
2023-03-24T08:32:09.854Z,15.2
2023-03-24T08:38:04.642Z,16.4
2023-03-24T08:43:58.063Z,15.5
2023-03-24T08:49:22.980Z,14.8
2023-03-24T08:54:59.514Z,16.1
2023-03-24T09:00:51.212Z,15.9
2023-03-24T09:06:39.580Z,15.7
2023-03-24T09:17:37.336Z,17.8
2023-03-24T09:23:00.286Z,17.8
2023-03-24T09:28:51.938Z,17.3
2023-03-24T09:34:31.945Z,17.2
2023-03-24T09:40:09.404Z,17.3
2023-03-24T09:45:48.410Z,17.5
2023-03-24T09:51:24.562Z,18.4
2023-03-24T09:57:01.125Z,18.1
2023-03-24T10:02:56.968Z,17.9
2023-03-24T10:08:34.269Z,20.5
2023-03-24T10:14:25.715Z,20.6
2023-03-24T10:20:39.684Z,21.1
2023-03-24T10:26:30.799Z,21.8
2023-03-24T10:32:07.580Z,22.3
2023-03-24T10:37:28.686Z,22.1
2023-03-24T10:43:42.052Z,21.6
2023-03-24T10:49:34.609Z,21.9
2023-03-24T10:55:32.986Z,22.2
2023-03-24T11:01:13.024Z,20.8
2023-03-24T11:06:50.796Z,22
2023-03-24T11:12:27.098Z,23.3
2023-03-24T11:18:29.277Z,23.2
2023-03-24T11:24:22.811Z,23.4
2023-03-24T11:29:59.254Z,23.3
2023-03-24T11:36:05.398Z,22.8
2023-03-24T11:41:56.572Z,23.5
2023-03-24T11:47:33.618Z,23.7
2023-03-24T11:53:27.856Z,24.3
2023-03-24T11:59:04.445Z,24.4
2023-03-24T12:04:58.760Z,24.7
2023-03-24T12:10:52.676Z,23.6
2023-03-24T12:17:13.298Z,22.8
2023-03-24T12:23:04.610Z,23.9
2023-03-24T12:28:55.602Z,22
2023-03-24T12:34:46.996Z,23.3
2023-03-24T12:40:42.653Z,23.1
2023-03-24T12:46:44.822Z,23.8
2023-03-24T12:58:27.196Z,25.8
2023-03-24T13:04:21.197Z,21.6
2023-03-24T13:10:08.734Z,21.8
2023-03-24T13:16:12.798Z,22.6
2023-03-24T13:22:06.080Z,23.1
2023-03-24T13:28:19.563Z,22.3
2023-03-24T13:34:05.024Z,21.6
2023-03-24T13:39:57.290Z,21.4
2023-03-24T13:45:33.800Z,22.8
2023-03-24T13:51:10.581Z,22.6
2023-03-24T13:57:02.834Z,23.6
2023-03-24T14:02:39.560Z,23.8
2023-03-24T14:08:31.783Z,24.2
2023-03-24T14:14:09.295Z,23.4
2023-03-24T14:19:30.018Z,24.6
2023-03-24T14:25:21.292Z,24.2
2023-03-24T14:31:14.369Z,23.7
2023-03-24T14:37:21.133Z,22.9
2023-03-24T14:43:20.264Z,22.6
2023-03-24T14:49:28.764Z,22.6
2023-03-24T14:55:04.071Z,22.4
2023-03-24T15:00:24.142Z,22.1
2023-03-24T15:06:29.026Z,21.6
2023-03-24T15:12:20.076Z,21
2023-03-24T15:18:11.955Z,21.2
2023-03-24T15:24:03.255Z,21.1
2023-03-24T15:29:54.773Z,20.6
2023-03-24T15:35:46.308Z,21.4
2023-03-24T15:41:32.820Z,22.7
2023-03-24T15:46:48.343Z,22.5
2023-03-24T15:52:24.787Z,23.1
2023-03-24T15:58:16.236Z,23.3
2023-03-24T16:04:08.677Z,23.1
2023-03-24T16:10:12.218Z,22
2023-03-24T16:16:03.839Z,21.9
2023-03-24T16:21:24.946Z,20.9
2023-03-24T16:26:45.659Z,20.1
2023-03-24T16:32:22.391Z,19.7
2023-03-24T16:37:58.562Z,18.8
2023-03-24T16:43:34.817Z,18.4
2023-03-24T16:49:29.507Z,18.3
2023-03-24T16:55:20.726Z,18
2023-03-24T17:01:12.061Z,17.8
2023-03-24T17:07:04.783Z,17.6
2023-03-24T17:12:57.980Z,17.3
2023-03-24T17:18:49.014Z,17.1
2023-03-24T17:24:09.919Z,17.1
2023-03-24T17:30:00.856Z,16.9
2023-03-24T17:36:05.827Z,16.7
2023-03-24T17:41:41.535Z,16.4
2023-03-24T17:47:32.422Z,15.9
2023-03-24T17:53:24.204Z,15.6
2023-03-24T17:59:00.359Z,15.3
2023-03-24T18:04:54.433Z,14.9
2023-03-24T18:10:47.500Z,14.6
2023-03-24T18:16:52.536Z,14.3
2023-03-24T18:22:44.151Z,14.1
2023-03-24T18:28:35.483Z,14.1
2023-03-24T18:34:28.116Z,13.9
2023-03-24T18:40:20.365Z,13.8
2023-03-24T18:46:11.876Z,13.8
2023-03-24T18:52:04.075Z,13.8
2023-03-24T18:57:40.464Z,13.6
2023-03-24T19:03:17.522Z,13.7
2023-03-24T19:08:53.272Z,13.4
2023-03-24T19:14:16.583Z,13.1
2023-03-24T19:19:52.804Z,12.6
2023-03-24T19:25:28.737Z,12.6
2023-03-24T19:31:20.252Z,12.8
2023-03-24T19:37:11.835Z,12.7
2023-03-24T19:43:06.090Z,12.3
2023-03-24T19:48:57.124Z,12.4
2023-03-24T19:54:49.147Z,12.5
2023-03-24T20:00:40.630Z,12.5
2023-03-24T20:06:35.944Z,12.5
2023-03-24T20:12:14.087Z,12.4
2023-03-24T20:17:50.813Z,12.3
2023-03-24T20:23:41.980Z,12.3
2023-03-24T20:29:33.651Z,12.1
2023-03-24T20:35:25.191Z,12.1
2023-03-24T20:41:16.555Z,12.1
2023-03-24T20:47:08.055Z,11.8
2023-03-24T20:52:59.621Z,11.6
2023-03-24T20:58:37.876Z,11.3
2023-03-24T21:04:37.675Z,11.2
2023-03-24T21:10:13.486Z,11.4
2023-03-24T21:16:28.151Z,11.1
2023-03-24T21:22:20.854Z,10.8
2023-03-24T21:28:14.408Z,10.3
2023-03-24T21:34:06.285Z,10
2023-03-24T21:39:57.878Z,8.9
2023-03-24T21:45:51.425Z,9.1
2023-03-24T21:51:45.821Z,10
2023-03-24T21:57:37.442Z,10.3
2023-03-24T22:03:15.034Z,10.1
2023-03-24T22:09:06.256Z,9.8
2023-03-24T22:14:27.491Z,8.7
2023-03-24T22:20:21.849Z,8.3
2023-03-24T22:26:14.093Z,8.2
2023-03-24T22:32:06.728Z,7.8
2023-03-24T22:37:28.462Z,7.6
2023-03-24T22:43:20.895Z,7.5
2023-03-24T22:49:13.233Z,7.3
2023-03-24T22:55:04.675Z,6.9
2023-03-24T23:00:56.173Z,6.9
2023-03-24T23:06:57.346Z,6.9
2023-03-24T23:12:48.700Z,6.6
2023-03-24T23:17:54.784Z,6.6
2023-03-24T23:23:15.380Z,6.6
2023-03-24T23:29:00.907Z,6.6
2023-03-24T23:34:38.562Z,6.8
2023-03-24T23:40:16.838Z,6.5
2023-03-24T23:45:52.833Z,6.8
2023-03-24T23:51:30.433Z,6.6
2023-03-24T23:57:21.704Z,6.8
